Time;durP1;ratioP1;P1;durP2;ratioP2;P2;SDS_P1;SDS_P2;PMS_P1;PMS_P2;Temp;Humidity;BMP_temperature;BMP_pressure;BME280_temperature;BME280_humidity;BME280_pressure;Samples;Min_cycle;Max_cycle;Signal;HPM_P1;HPM_P2
2022/11/16 00:01:19;;;;;;;;;;;10.50;99.90;;;;;;5107411;28;19963;-72
2022/11/16 00:03:44;;;;;;;;;;;10.40;99.90;;;;;;5109547;28;19964;-72
2022/11/16 00:06:11;;;;;;;;;;;10.50;99.90;;;;;;5137237;27;19921;-71
2022/11/16 00:08:37;;;;;;;;;;;10.40;99.90;;;;;;5100884;27;19935;-73
2022/11/16 00:11:21;;;;;;;;;;;10.50;99.90;;;;;;5098458;28;19928;-73
2022/11/16 00:13:46;;;;;;;;;;;10.50;99.90;;;;;;5104625;28;19924;-71
2022/11/16 00:16:14;;;;;;;;;;;10.50;99.90;;;;;;5100708;27;19920;-71
2022/11/16 00:18:41;;;;;;;;;;;10.50;99.90;;;;;;5102223;27;19945;-71
2022/11/16 00:21:06;;;;;;;;;;;10.40;99.90;;;;;;5104570;27;20405;-71
2022/11/16 00:23:34;;;;;;;;;;;10.50;99.90;;;;;;5102187;28;19920;-72
2022/11/16 00:26:06;;;;;;;;;;;10.50;99.90;;;;;;5136891;27;19924;-71
2022/11/16 00:28:31;;;;;;;;;;;10.50;99.90;;;;;;5137274;27;19927;-72
2022/11/16 00:31:01;;;;;;;;;;;10.50;99.90;;;;;;5101983;27;20290;-70
2022/11/16 00:33:26;;;;;;;;;;;10.50;99.90;;;;;;5105295;27;19931;-71
2022/11/16 00:35:52;;;;;;;;;;;10.50;99.90;;;;;;5108487;27;19923;-71
2022/11/16 00:38:17;;;;;;;;;;;10.50;99.90;;;;;;5100485;28;20934;-70
2022/11/16 00:40:43;;;;;;;;;;;10.50;99.90;;;;;;5101926;28;19935;-73
2022/11/16 00:43:08;;;;;;;;;;;10.50;99.90;;;;;;5107158;27;20374;-72
2022/11/16 00:45:34;;;;;;;;;;;10.50;99.90;;;;;;5100726;27;19929;-71
2022/11/16 00:47:59;;;;;;;;;;;10.50;99.90;;;;;;5108226;27;19930;-72
2022/11/16 00:50:25;;;;;;;;;;;10.60;99.90;;;;;;5099966;27;19998;-69
2022/11/16 00:52:51;;;;;;;;;;;10.50;99.90;;;;;;5100301;28;19939;-69
2022/11/16 00:55:17;;;;;;;;;;;10.50;99.90;;;;;;5081919;28;20298;-70
2022/11/16 00:57:42;;;;;;;;;;;10.60;99.90;;;;;;5102034;28;19920;-70
2022/11/16 01:00:08;;;;;;;;;;;10.60;99.90;;;;;;5103815;27;19927;-70
2022/11/16 01:02:34;;;;;;;;;;;10.60;99.90;;;;;;5128488;27;19931;-70
2022/11/16 01:05:00;;;;;;;;;;;10.60;99.90;;;;;;5099027;27;19927;-69
2022/11/16 01:07:26;;;;;;;;;;;10.60;99.90;;;;;;5127264;27;19955;-69
2022/11/16 01:09:51;;;;;;;;;;;10.60;99.90;;;;;;5131321;27;19962;-70
2022/11/16 01:12:35;;;;;;;;;;;10.60;99.90;;;;;;5103722;28;19923;-70
2022/11/16 01:15:01;;;;;;;;;;;10.60;99.90;;;;;;5119745;28;19924;-69
2022/11/16 01:17:26;;;;;;;;;;;10.70;99.90;;;;;;5096846;28;19924;-69
2022/11/16 01:19:52;;;;;;;;;;;10.70;99.90;;;;;;5105510;28;19923;-69
2022/11/16 01:22:34;;;;;;;;;;;10.70;99.90;;;;;;5103618;28;19924;-69
2022/11/16 01:24:59;;;;;;;;;;;10.60;99.90;;;;;;5145088;27;20385;-69
2022/11/16 01:27:25;;;;;;;;;;;10.60;99.90;;;;;;5108595;28;19919;-70
2022/11/16 01:29:50;;;;;;;;;;;10.70;99.90;;;;;;5112281;28;19920;-69
2022/11/16 01:32:16;;;;;;;;;;;10.60;99.90;;;;;;5098084;28;19920;-70
2022/11/16 01:35:18;;;;;;;;;;;10.60;99.90;;;;;;5125488;27;19924;-70
2022/11/16 01:37:44;;;;;;;;;;;10.70;99.90;;;;;;5113611;28;20022;-70
2022/11/16 01:40:10;;;;;;;;;;;10.70;99.90;;;;;;5098463;28;20440;-71
2022/11/16 01:42:42;;;;;;;;;;;10.70;99.90;;;;;;5104924;28;20119;-70
2022/11/16 01:45:34;;;;;;;;;;;10.70;99.90;;;;;;5093220;28;19924;-70
2022/11/16 01:48:00;;;;;;;;;;;10.70;99.90;;;;;;5107937;28;20428;-70
2022/11/16 01:50:25;;;;;;;;;;;10.70;99.90;;;;;;5140467;27;19976;-71
2022/11/16 01:52:59;;;;;;;;;;;10.80;99.90;;;;;;5098545;28;20002;-71
2022/11/16 01:55:26;;;;;;;;;;;10.80;99.90;;;;;;5082526;28;20091;-70
2022/11/16 01:57:51;;;;;;;;;;;10.70;99.90;;;;;;5121915;28;20443;-72
2022/11/16 02:00:22;;;;;;;;;;;10.80;99.90;;;;;;5096828;28;20015;-70
2022/11/16 02:02:48;;;;;;;;;;;10.70;99.90;;;;;;5102399;28;19923;-71
2022/11/16 02:05:16;;;;;;;;;;;10.80;99.90;;;;;;5109242;28;19935;-72
2022/11/16 02:10:49;;;;;;;;;;;10.70;99.90;;;;;;5082882;28;19980;-71
2022/11/16 02:13:24;;;;;;;;;;;10.80;99.90;;;;;;5102838;28;19928;-72
2022/11/16 02:16:07;;;;;;;;;;;10.80;99.90;;;;;;5099883;28;20374;-71
2022/11/16 02:18:49;;;;;;;;;;;10.80;99.90;;;;;;5108382;28;19978;-71
2022/11/16 02:21:17;;;;;;;;;;;10.90;99.90;;;;;;5115170;28;20044;-72
2022/11/16 02:24:02;;;;;;;;;;;10.90;99.90;;;;;;5106801;28;19998;-72
2022/11/16 02:27:03;;;;;;;;;;;10.80;99.90;;;;;;5108692;28;19979;-72
2022/11/16 02:29:34;;;;;;;;;;;10.80;99.90;;;;;;5045079;28;19936;-72
2022/11/16 02:31:59;;;;;;;;;;;10.90;99.90;;;;;;5098008;28;19920;-72
2022/11/16 02:34:28;;;;;;;;;;;10.90;99.90;;;;;;5093067;28;20259;-71
2022/11/16 02:36:55;;;;;;;;;;;10.80;99.90;;;;;;5094275;28;19976;-72
2022/11/16 02:39:26;;;;;;;;;;;10.80;99.90;;;;;;5112568;28;19920;-72
2022/11/16 02:41:52;;;;;;;;;;;10.80;99.90;;;;;;5101434;28;19927;-71
2022/11/16 02:44:19;;;;;;;;;;;10.80;99.90;;;;;;5113411;28;20290;-71
2022/11/16 02:46:46;;;;;;;;;;;10.90;99.90;;;;;;5106392;28;19919;-72
2022/11/16 02:49:15;;;;;;;;;;;10.80;99.90;;;;;;5097068;28;19920;-71
2022/11/16 02:52:13;;;;;;;;;;;10.80;99.90;;;;;;5091782;28;20302;-71
2022/11/16 02:54:38;;;;;;;;;;;10.80;99.90;;;;;;5135372;27;19977;-72
2022/11/16 02:57:04;;;;;;;;;;;10.80;99.90;;;;;;5102071;28;20008;-71
2022/11/16 02:59:32;;;;;;;;;;;10.80;99.90;;;;;;5113281;28;20022;-71
2022/11/16 03:02:00;;;;;;;;;;;10.90;99.90;;;;;;5103994;28;19928;-72
2022/11/16 03:04:29;;;;;;;;;;;10.90;99.90;;;;;;5124697;27;19920;-71
2022/11/16 03:06:55;;;;;;;;;;;10.80;99.90;;;;;;5119683;27;20062;-71
2022/11/16 03:09:23;;;;;;;;;;;10.80;99.90;;;;;;5061041;28;19920;-72
2022/11/16 03:12:01;;;;;;;;;;;10.90;99.90;;;;;;5092996;28;20289;-71
2022/11/16 03:14:30;;;;;;;;;;;10.80;99.90;;;;;;5062217;28;19925;-71
2022/11/16 03:16:56;;;;;;;;;;;10.80;99.90;;;;;;5062115;28;19943;-71
2022/11/16 03:19:31;;;;;;;;;;;10.80;99.90;;;;;;5073586;28;19931;-71
2022/11/16 03:21:58;;;;;;;;;;;10.80;99.90;;;;;;5101430;28;19966;-71
2022/11/16 03:24:24;;;;;;;;;;;10.90;99.90;;;;;;5063205;28;19931;-70
2022/11/16 03:26:53;;;;;;;;;;;10.90;99.90;;;;;;5069310;28;19921;-71
2022/11/16 03:29:27;;;;;;;;;;;10.90;99.90;;;;;;5084643;28;19926;-72
2022/11/16 03:31:55;;;;;;;;;;;10.80;99.90;;;;;;5100605;28;20409;-71
2022/11/16 03:34:24;;;;;;;;;;;10.80;99.90;;;;;;5073903;28;19965;-70
2022/11/16 03:36:51;;;;;;;;;;;10.90;99.90;;;;;;5068645;28;19928;-71
2022/11/16 03:39:23;;;;;;;;;;;10.80;99.90;;;;;;5057516;28;19962;-70
2022/11/16 03:41:49;;;;;;;;;;;10.90;99.90;;;;;;5062785;28;20420;-70
2022/11/16 03:44:16;;;;;;;;;;;10.80;99.90;;;;;;5064512;28;19924;-70
2022/11/16 03:46:43;;;;;;;;;;;10.80;99.90;;;;;;5095025;28;20315;-70
2022/11/16 03:49:08;;;;;;;;;;;10.90;99.90;;;;;;5066964;28;19920;-70
2022/11/16 03:51:36;;;;;;;;;;;10.80;99.90;;;;;;5098198;28;20057;-70
2022/11/16 03:54:02;;;;;;;;;;;10.90;99.90;;;;;;5066944;28;20425;-71
2022/11/16 03:56:27;;;;;;;;;;;10.90;99.90;;;;;;5089202;28;19928;-70
2022/11/16 03:58:53;;;;;;;;;;;10.80;99.90;;;;;;5067279;28;20021;-70
2022/11/16 04:01:18;;;;;;;;;;;10.80;99.90;;;;;;5058826;28;20393;-70
2022/11/16 04:03:44;;;;;;;;;;;10.90;99.90;;;;;;5073410;28;20027;-71
2022/11/16 04:25:45;;;;;;;;;;;10.90;99.90;;;;;;5085338;28;19932;-71
2022/11/16 04:28:15;;;;;;;;;;;10.80;99.90;;;;;;5085361;28;19920;-70
2022/11/16 04:39:24;;;;;;;;;;;10.80;99.90;;;;;;5113029;27;20282;-70
2022/11/16 04:47:19;;;;;;;;;;;10.80;99.90;;;;;;5085763;28;19927;-70
2022/11/16 04:49:44;;;;;;;;;;;10.80;99.90;;;;;;5090730;28;20363;-71
2022/11/16 04:52:10;;;;;;;;;;;10.90;99.90;;;;;;5087209;28;19924;-70
2022/11/16 04:54:35;;;;;;;;;;;10.70;99.90;;;;;;5116973;27;19924;-70
2022/11/16 04:57:00;;;;;;;;;;;10.70;99.90;;;;;;5083273;28;19982;-71
2022/11/16 04:59:26;;;;;;;;;;;10.80;99.90;;;;;;5083829;28;19931;-71
2022/11/16 05:02:07;;;;;;;;;;;10.70;99.90;;;;;;5081536;28;19955;-71
2022/11/16 05:07:37;;;;;;;;;;;10.80;99.90;;;;;;5090496;27;21257;-71
2022/11/16 05:10:03;;;;;;;;;;;10.70;99.90;;;;;;5097737;28;20279;-71
2022/11/16 05:12:29;;;;;;;;;;;10.80;99.90;;;;;;5099245;28;19924;-71
2022/11/16 05:14:55;;;;;;;;;;;10.70;99.90;;;;;;5130651;27;19955;-70
2022/11/16 05:17:22;;;;;;;;;;;10.70;99.90;;;;;;5127693;27;20391;-70
2022/11/16 05:22:33;;;;;;;;;;;10.70;99.90;;;;;;5130539;27;19927;-71
2022/11/16 05:24:58;;;;;;;;;;;10.70;99.90;;;;;;5101759;28;19920;-71
2022/11/16 05:27:24;;;;;;;;;;;10.80;99.90;;;;;;5102881;28;19973;-70
2022/11/16 05:29:50;;;;;;;;;;;10.80;99.90;;;;;;5130006;27;19934;-70
2022/11/16 05:32:17;;;;;;;;;;;10.90;99.90;;;;;;5125264;27;19923;-70
2022/11/16 05:34:42;;;;;;;;;;;10.90;99.90;;;;;;5098874;28;20043;-70
2022/11/16 05:37:08;;;;;;;;;;;10.90;99.90;;;;;;5103097;28;20046;-70
2022/11/16 05:39:33;;;;;;;;;;;10.90;99.90;;;;;;5100284;28;20456;-70
2022/11/16 05:41:59;;;;;;;;;;;11.00;99.90;;;;;;5097106;28;19931;-70
2022/11/16 05:44:24;;;;;;;;;;;10.90;99.90;;;;;;5116990;27;20448;-71
2022/11/16 05:46:50;;;;;;;;;;;10.90;99.90;;;;;;5103517;28;20362;-71
2022/11/16 05:49:15;;;;;;;;;;;11.00;99.90;;;;;;5077399;28;19924;-72
2022/11/16 05:51:42;;;;;;;;;;;10.90;99.90;;;;;;5096548;28;20008;-71
2022/11/16 05:54:10;;;;;;;;;;;11.00;99.90;;;;;;5102009;28;20398;-71
2022/11/16 05:56:36;;;;;;;;;;;11.00;99.90;;;;;;5134239;27;20370;-71
2022/11/16 05:59:01;;;;;;;;;;;11.00;99.90;;;;;;5098858;28;19926;-72
2022/11/16 06:01:27;;;;;;;;;;;11.00;99.90;;;;;;5100984;28;19946;-72
2022/11/16 06:03:52;;;;;;;;;;;10.90;99.90;;;;;;5098913;27;20363;-71
2022/11/16 06:06:18;;;;;;;;;;;11.00;99.90;;;;;;5105218;27;19932;-71
2022/11/16 06:08:44;;;;;;;;;;;11.00;99.90;;;;;;5099062;27;19919;-71
2022/11/16 06:11:10;;;;;;;;;;;11.00;99.90;;;;;;5101097;27;19919;-70
2022/11/16 06:13:36;;;;;;;;;;;10.90;99.90;;;;;;5132320;27;19957;-70
2022/11/16 06:16:02;;;;;;;;;;;11.00;99.90;;;;;;5101650;27;20415;-71
2022/11/16 06:18:27;;;;;;;;;;;10.90;99.90;;;;;;5103921;27;20378;-70
2022/11/16 06:20:53;;;;;;;;;;;10.90;99.90;;;;;;5104829;27;19924;-70
2022/11/16 06:23:18;;;;;;;;;;;10.80;99.90;;;;;;5098820;27;19968;-70
2022/11/16 06:25:44;;;;;;;;;;;10.80;99.90;;;;;;5103383;27;19920;-72
2022/11/16 06:28:09;;;;;;;;;;;10.90;99.90;;;;;;5103070;27;20397;-72
2022/11/16 06:30:37;;;;;;;;;;;10.90;99.90;;;;;;5104820;27;19927;-72
2022/11/16 06:33:02;;;;;;;;;;;10.80;99.90;;;;;;5136708;27;20417;-72
2022/11/16 06:35:28;;;;;;;;;;;10.80;99.90;;;;;;5138237;27;19924;-71
2022/11/16 06:37:54;;;;;;;;;;;10.90;99.90;;;;;;5096982;27;19931;-71
2022/11/16 06:40:19;;;;;;;;;;;10.90;99.90;;;;;;5101815;27;19928;-71
2022/11/16 06:42:45;;;;;;;;;;;10.70;99.90;;;;;;5093772;27;20049;-71
2022/11/16 06:45:10;;;;;;;;;;;10.90;99.90;;;;;;5101083;27;19927;-71
2022/11/16 06:47:36;;;;;;;;;;;10.80;99.90;;;;;;5098184;27;19921;-71
2022/11/16 06:50:01;;;;;;;;;;;10.70;99.90;;;;;;5102137;27;20046;-71
2022/11/16 06:52:27;;;;;;;;;;;10.80;99.90;;;;;;5103101;27;19928;-71
2022/11/16 06:54:52;;;;;;;;;;;10.70;99.90;;;;;;5104698;27;20332;-71
2022/11/16 06:57:18;;;;;;;;;;;10.70;99.90;;;;;;5102560;27;19928;-71
2022/11/16 06:59:43;;;;;;;;;;;10.70;99.90;;;;;;5102829;27;19927;-72
2022/11/16 07:02:09;;;;;;;;;;;10.70;99.90;;;;;;5101041;27;19934;-71
2022/11/16 07:04:35;;;;;;;;;;;10.60;99.90;;;;;;5098371;27;20032;-71
2022/11/16 07:07:00;;;;;;;;;;;10.70;99.90;;;;;;5107127;27;20168;-72
2022/11/16 07:09:26;;;;;;;;;;;10.70;99.90;;;;;;5084213;28;19919;-72
2022/11/16 07:11:51;;;;;;;;;;;10.50;99.90;;;;;;5080530;28;20053;-72
2022/11/16 07:14:17;;;;;;;;;;;10.50;99.90;;;;;;5116752;27;19936;-72
2022/11/16 07:16:42;;;;;;;;;;;10.60;99.90;;;;;;5086222;27;19920;-72
2022/11/16 07:19:08;;;;;;;;;;;10.50;99.90;;;;;;5112066;27;19924;-72
2022/11/16 07:21:35;;;;;;;;;;;10.50;99.90;;;;;;5085044;28;19920;-72
2022/11/16 07:24:01;;;;;;;;;;;10.40;99.90;;;;;;5118974;27;20627;-71
2022/11/16 07:26:27;;;;;;;;;;;10.50;99.90;;;;;;5086334;28;19924;-71
2022/11/16 07:28:53;;;;;;;;;;;10.50;99.90;;;;;;5080632;27;20247;-71
2022/11/16 07:31:18;;;;;;;;;;;10.50;99.90;;;;;;5115105;27;19930;-70
2022/11/16 07:33:52;;;;;;;;;;;10.50;99.90;;;;;;5113762;27;19923;-71
2022/11/16 07:36:17;;;;;;;;;;;10.30;99.90;;;;;;5083699;28;20070;-72
2022/11/16 07:38:43;;;;;;;;;;;10.40;99.90;;;;;;5078291;28;20019;-71
2022/11/16 07:41:10;;;;;;;;;;;10.30;99.90;;;;;;5082376;28;19927;-71
2022/11/16 07:43:35;;;;;;;;;;;10.30;99.90;;;;;;5115670;27;19928;-72
2022/11/16 07:46:04;;;;;;;;;;;10.40;99.90;;;;;;5069738;28;19920;-71
2022/11/16 07:48:33;;;;;;;;;;;10.40;99.90;;;;;;5115148;27;20301;-70
2022/11/16 07:50:59;;;;;;;;;;;10.40;99.90;;;;;;5086648;28;20155;-72
2022/11/16 07:53:25;;;;;;;;;;;10.30;99.90;;;;;;5082458;27;19974;-72
2022/11/16 07:55:52;;;;;;;;;;;10.30;99.90;;;;;;5120308;27;19967;-71
2022/11/16 07:58:18;;;;;;;;;;;10.30;99.90;;;;;;5110608;27;20290;-72
2022/11/16 08:00:43;;;;;;;;;;;10.50;99.90;;;;;;5087303;27;19924;-71
2022/11/16 08:03:08;;;;;;;;;;;10.40;99.90;;;;;;5084073;28;20327;-71
2022/11/16 08:05:34;;;;;;;;;;;10.50;99.90;;;;;;5119219;27;19931;-71
2022/11/16 08:07:59;;;;;;;;;;;10.50;99.90;;;;;;5086884;28;19971;-71
2022/11/16 08:10:25;;;;;;;;;;;10.40;99.90;;;;;;5100621;27;19924;-71
2022/11/16 08:12:50;;;;;;;;;;;10.50;99.90;;;;;;5094421;27;19920;-71
2022/11/16 08:15:16;;;;;;;;;;;10.50;99.90;;;;;;5083754;28;19938;-71
2022/11/16 08:17:41;;;;;;;;;;;10.60;99.90;;;;;;5097596;27;19959;-71
2022/11/16 08:20:08;;;;;;;;;;;10.50;99.90;;;;;;5100292;27;20310;-71
2022/11/16 08:22:34;;;;;;;;;;;10.50;99.90;;;;;;5116388;27;20023;-71
2022/11/16 08:24:59;;;;;;;;;;;10.70;99.90;;;;;;5099894;27;20019;-71
2022/11/16 08:27:25;;;;;;;;;;;10.60;99.90;;;;;;5097678;27;19924;-71
2022/11/16 08:29:50;;;;;;;;;;;10.60;99.90;;;;;;5089459;27;19931;-72
2022/11/16 08:32:16;;;;;;;;;;;10.70;99.90;;;;;;5101597;27;20037;-71
2022/11/16 08:34:41;;;;;;;;;;;10.70;99.90;;;;;;5097808;28;21452;-71
2022/11/16 08:37:07;;;;;;;;;;;10.80;99.90;;;;;;5092960;28;19968;-71
2022/11/16 08:39:32;;;;;;;;;;;10.80;99.90;;;;;;5104885;27;19919;-71
2022/11/16 08:41:58;;;;;;;;;;;10.90;99.90;;;;;;5104162;28;19934;-68
2022/11/16 08:44:24;;;;;;;;;;;11.00;99.90;;;;;;5096368;28;20127;-68
2022/11/16 08:46:49;;;;;;;;;;;10.90;99.90;;;;;;5103038;27;20273;-68
2022/11/16 08:49:21;;;;;;;;;;;11.10;99.90;;;;;;5094699;28;19928;-68
2022/11/16 08:51:46;;;;;;;;;;;11.20;99.90;;;;;;5092569;28;19926;-68
2022/11/16 08:54:12;;;;;;;;;;;11.30;99.90;;;;;;5101093;28;19924;-68
2022/11/16 08:56:37;;;;;;;;;;;11.30;99.90;;;;;;5111669;28;19924;-69
2022/11/16 08:59:03;;;;;;;;;;;11.30;99.90;;;;;;5100327;28;20069;-68
2022/11/16 09:01:29;;;;;;;;;;;11.40;99.90;;;;;;5102356;28;19931;-68
2022/11/16 09:03:55;;;;;;;;;;;11.40;99.90;;;;;;5110894;27;19920;-68
2022/11/16 09:06:21;;;;;;;;;;;11.40;99.90;;;;;;5097161;28;20287;-68
2022/11/16 09:08:46;;;;;;;;;;;11.40;99.90;;;;;;5098193;28;20337;-68
2022/11/16 09:11:14;;;;;;;;;;;11.40;99.90;;;;;;5102652;28;19919;-68
2022/11/16 09:13:40;;;;;;;;;;;11.30;99.90;;;;;;5098294;27;19982;-69
2022/11/16 09:16:06;;;;;;;;;;;11.30;99.90;;;;;;5101986;27;19932;-69
2022/11/16 09:18:32;;;;;;;;;;;11.40;99.90;;;;;;5092678;28;19950;-70
2022/11/16 09:20:57;;;;;;;;;;;11.40;99.90;;;;;;5096306;28;19928;-69
2022/11/16 09:23:23;;;;;;;;;;;11.50;99.90;;;;;;5096930;28;19928;-68
2022/11/16 09:25:48;;;;;;;;;;;11.30;99.90;;;;;;5100436;28;19926;-69
2022/11/16 09:28:14;;;;;;;;;;;11.50;99.90;;;;;;5127765;27;19963;-68
2022/11/16 09:30:40;;;;;;;;;;;11.40;99.90;;;;;;5097274;28;20328;-67
2022/11/16 09:33:06;;;;;;;;;;;11.30;99.90;;;;;;5098806;28;19934;-68
2022/11/16 09:35:32;;;;;;;;;;;11.30;99.90;;;;;;5100380;28;19928;-66
2022/11/16 09:37:58;;;;;;;;;;;11.50;99.90;;;;;;5094601;28;19945;-68
2022/11/16 09:40:28;;;;;;;;;;;11.40;99.90;;;;;;5102755;27;19930;-68
2022/11/16 09:42:57;;;;;;;;;;;11.30;99.90;;;;;;5094909;27;19924;-68
2022/11/16 09:45:31;;;;;;;;;;;11.30;99.90;;;;;;5097098;27;20006;-68
2022/11/16 09:48:01;;;;;;;;;;;11.30;99.90;;;;;;5100168;27;20002;-69
2022/11/16 09:50:45;;;;;;;;;;;11.20;99.90;;;;;;5099626;27;19924;-68
2022/11/16 09:53:29;;;;;;;;;;;11.20;99.90;;;;;;5093777;28;20030;-67
2022/11/16 09:56:00;;;;;;;;;;;11.40;99.90;;;;;;5133876;27;19931;-67
2022/11/16 09:58:34;;;;;;;;;;;11.30;99.90;;;;;;5130721;27;19965;-68
2022/11/16 10:01:21;;;;;;;;;;;11.30;99.90;;;;;;5108367;27;19926;-69
2022/11/16 10:03:49;;;;;;;;;;;11.30;99.90;;;;;;5101563;27;19967;-69
2022/11/16 10:06:28;;;;;;;;;;;11.40;99.90;;;;;;5100175;27;19920;-69
2022/11/16 10:08:55;;;;;;;;;;;11.30;99.90;;;;;;5131902;27;19920;-69
2022/11/16 10:11:23;;;;;;;;;;;11.20;99.90;;;;;;5102279;28;20030;-70
2022/11/16 10:13:49;;;;;;;;;;;11.20;99.90;;;;;;5134219;27;19920;-70
2022/11/16 10:16:15;;;;;;;;;;;11.10;99.90;;;;;;5105037;27;20367;-70
2022/11/16 10:18:49;;;;;;;;;;;11.20;99.90;;;;;;5100387;27;20404;-71
2022/11/16 10:21:24;;;;;;;;;;;11.20;99.90;;;;;;5097420;27;19924;-69
2022/11/16 10:24:05;;;;;;;;;;;11.30;99.90;;;;;;5130912;27;20501;-69
2022/11/16 10:26:39;;;;;;;;;;;11.20;99.90;;;;;;5099225;27;19927;-71
2022/11/16 10:29:13;;;;;;;;;;;11.10;99.90;;;;;;5103141;27;19927;-70
2022/11/16 10:32:01;;;;;;;;;;;11.20;99.90;;;;;;5109884;27;19928;-69
2022/11/16 10:34:55;;;;;;;;;;;11.30;99.90;;;;;;5133663;27;20434;-68
2022/11/16 10:37:23;;;;;;;;;;;11.20;99.90;;;;;;5068478;27;20004;-70
2022/11/16 10:39:49;;;;;;;;;;;11.20;99.90;;;;;;5099497;27;19924;-69
2022/11/16 10:42:18;;;;;;;;;;;11.30;99.90;;;;;;5104535;27;19920;-70
2022/11/16 10:44:46;;;;;;;;;;;11.40;99.90;;;;;;5106426;27;19928;-71
2022/11/16 10:47:25;;;;;;;;;;;11.60;99.90;;;;;;5139782;27;20416;-69
2022/11/16 10:50:13;;;;;;;;;;;11.50;99.90;;;;;;5101000;28;19920;-70
2022/11/16 10:52:38;;;;;;;;;;;11.60;99.90;;;;;;5132852;27;19963;-70
2022/11/16 10:55:04;;;;;;;;;;;11.50;99.90;;;;;;5103386;27;20415;-71
2022/11/16 10:57:50;;;;;;;;;;;11.50;99.90;;;;;;5102165;27;19924;-71
2022/11/16 11:00:32;;;;;;;;;;;11.50;99.90;;;;;;5102895;27;20100;-69
2022/11/16 11:02:57;;;;;;;;;;;11.40;99.90;;;;;;5108231;27;20019;-69
2022/11/16 11:05:24;;;;;;;;;;;11.30;99.90;;;;;;5110530;27;19981;-70
2022/11/16 11:08:00;;;;;;;;;;;11.40;99.90;;;;;;5100276;27;19927;-71
2022/11/16 11:10:35;;;;;;;;;;;11.30;99.90;;;;;;5129411;27;19928;-72
2022/11/16 11:13:04;;;;;;;;;;;11.40;99.90;;;;;;5102336;27;20011;-70
2022/11/16 11:15:30;;;;;;;;;;;11.40;99.90;;;;;;5130419;27;19927;-71
2022/11/16 11:18:11;;;;;;;;;;;11.50;99.90;;;;;;5107970;27;19920;-70
2022/11/16 11:20:37;;;;;;;;;;;11.50;99.90;;;;;;5085456;28;19952;-72
2022/11/16 11:23:09;;;;;;;;;;;11.40;99.90;;;;;;5100063;27;20278;-71
2022/11/16 11:25:54;;;;;;;;;;;11.50;99.90;;;;;;5101067;27;19959;-70
2022/11/16 11:28:20;;;;;;;;;;;11.50;99.90;;;;;;5137126;27;19928;-69
2022/11/16 11:30:55;;;;;;;;;;;11.50;99.90;;;;;;5101631;27;20472;-71
2022/11/16 11:33:22;;;;;;;;;;;11.40;99.90;;;;;;5097728;27;19924;-71
2022/11/16 11:36:05;;;;;;;;;;;11.20;99.90;;;;;;5081837;28;19989;-70
2022/11/16 11:38:30;;;;;;;;;;;11.10;99.90;;;;;;5098461;27;20379;-72
2022/11/16 11:40:57;;;;;;;;;;;11.10;99.90;;;;;;5097295;27;19966;-71
2022/11/16 11:43:26;;;;;;;;;;;10.90;99.90;;;;;;5095179;27;21456;-70
2022/11/16 11:46:02;;;;;;;;;;;10.90;99.90;;;;;;5127872;27;19926;-71
2022/11/16 11:48:31;;;;;;;;;;;11.10;99.90;;;;;;5111361;28;20281;-70
2022/11/16 11:51:01;;;;;;;;;;;11.10;99.90;;;;;;5105979;28;19946;-72
2022/11/16 11:53:53;;;;;;;;;;;11.20;99.90;;;;;;5109496;28;19934;-70
2022/11/16 11:56:19;;;;;;;;;;;11.30;99.90;;;;;;5094956;28;19928;-71
2022/11/16 11:58:45;;;;;;;;;;;11.20;99.90;;;;;;5108159;27;19927;-69
2022/11/16 12:01:14;;;;;;;;;;;11.30;99.90;;;;;;5132898;27;19919;-69
2022/11/16 12:03:48;;;;;;;;;;;11.30;99.90;;;;;;5093302;28;19999;-71
2022/11/16 12:06:17;;;;;;;;;;;11.40;99.90;;;;;;5102033;28;19923;-71
2022/11/16 12:08:49;;;;;;;;;;;11.50;99.90;;;;;;5107925;28;19927;-71
2022/11/16 12:11:24;;;;;;;;;;;11.40;99.90;;;;;;5105767;28;20833;-72
2022/11/16 12:13:59;;;;;;;;;;;11.40;99.90;;;;;;5090199;28;19924;-72
2022/11/16 12:16:43;;;;;;;;;;;11.30;99.90;;;;;;5103314;28;19932;-71
2022/11/16 12:19:21;;;;;;;;;;;11.30;99.90;;;;;;5104602;27;20540;-70
2022/11/16 12:21:52;;;;;;;;;;;11.30;99.90;;;;;;5138775;27;19920;-70
2022/11/16 12:24:35;;;;;;;;;;;11.20;99.90;;;;;;5101429;27;19923;-71
2022/11/16 12:27:03;;;;;;;;;;;11.30;99.90;;;;;;5105738;28;19926;-71
2022/11/16 12:29:39;;;;;;;;;;;11.30;99.90;;;;;;5078979;28;19927;-72
2022/11/16 12:32:16;;;;;;;;;;;11.20;99.90;;;;;;5135067;27;20272;-71
2022/11/16 12:34:42;;;;;;;;;;;11.20;99.90;;;;;;5102708;27;20655;-71
2022/11/16 12:37:27;;;;;;;;;;;11.20;99.90;;;;;;5105305;28;19920;-71
2022/11/16 12:40:16;;;;;;;;;;;11.20;99.90;;;;;;5107063;27;20492;-71
2022/11/16 12:43:00;;;;;;;;;;;11.20;99.90;;;;;;5099075;28;19963;-73
2022/11/16 12:45:42;;;;;;;;;;;11.20;99.90;;;;;;5099819;27;19928;-71
2022/11/16 12:48:26;;;;;;;;;;;11.20;99.90;;;;;;5102533;27;19920;-70
2022/11/16 12:51:10;;;;;;;;;;;11.10;99.90;;;;;;5098963;27;19967;-71
2022/11/16 12:53:36;;;;;;;;;;;11.10;99.90;;;;;;5097190;27;20378;-71
2022/11/16 12:56:16;;;;;;;;;;;11.20;99.90;;;;;;5098494;27;19934;-70
2022/11/16 12:58:44;;;;;;;;;;;11.30;99.90;;;;;;5133207;27;19978;-71
2022/11/16 13:01:21;;;;;;;;;;;11.30;99.90;;;;;;5096277;28;19920;-71
2022/11/16 13:03:49;;;;;;;;;;;11.20;99.90;;;;;;5116769;27;20389;-72
2022/11/16 13:06:17;;;;;;;;;;;11.30;99.90;;;;;;5098581;28;19923;-72
2022/11/16 13:08:42;;;;;;;;;;;11.10;99.90;;;;;;5094965;27;19920;-71
2022/11/16 13:11:12;;;;;;;;;;;11.20;99.90;;;;;;5108501;28;20321;-72
2022/11/16 13:13:38;;;;;;;;;;;11.20;99.90;;;;;;5103308;28;20448;-72
2022/11/16 13:16:05;;;;;;;;;;;11.10;99.90;;;;;;5098529;28;20015;-72
2022/11/16 13:18:31;;;;;;;;;;;11.20;99.90;;;;;;5105283;28;20001;-70
2022/11/16 13:21:01;;;;;;;;;;;11.10;99.90;;;;;;5095549;28;19926;-70
2022/11/16 13:23:27;;;;;;;;;;;11.10;99.90;;;;;;5103393;28;19919;-72
2022/11/16 13:26:01;;;;;;;;;;;11.20;99.90;;;;;;5103238;28;20515;-72
2022/11/16 13:28:30;;;;;;;;;;;11.10;99.90;;;;;;5083573;28;19959;-71
2022/11/16 13:31:03;;;;;;;;;;;11.20;99.90;;;;;;5099215;28;19923;-72
2022/11/16 13:33:32;;;;;;;;;;;11.20;99.90;;;;;;5093572;28;20051;-71
2022/11/16 13:35:57;;;;;;;;;;;11.30;99.90;;;;;;5097832;28;19935;-72
2022/11/16 13:38:42;;;;;;;;;;;11.30;99.90;;;;;;5098942;28;19923;-71
2022/11/16 13:41:26;;;;;;;;;;;11.30;99.90;;;;;;5098079;28;19928;-71
2022/11/16 13:43:51;;;;;;;;;;;11.30;99.90;;;;;;5091234;28;20520;-70
2022/11/16 13:46:17;;;;;;;;;;;11.20;99.90;;;;;;5092084;28;20245;-70
2022/11/16 13:48:44;;;;;;;;;;;11.40;99.90;;;;;;5092679;28;19979;-70
2022/11/16 13:51:20;;;;;;;;;;;11.30;99.90;;;;;;5127328;27;19920;-70
2022/11/16 13:53:50;;;;;;;;;;;11.30;99.90;;;;;;5106004;28;19965;-72
2022/11/16 13:56:16;;;;;;;;;;;11.30;99.90;;;;;;5097214;28;19923;-71
2022/11/16 13:58:46;;;;;;;;;;;11.30;99.90;;;;;;5097645;28;19924;-71
2022/11/16 14:01:15;;;;;;;;;;;11.20;99.90;;;;;;5094496;28;20023;-71
2022/11/16 14:03:41;;;;;;;;;;;11.10;99.90;;;;;;5126334;27;19920;-71
2022/11/16 14:06:13;;;;;;;;;;;11.10;99.90;;;;;;5093645;28;19923;-71
2022/11/16 14:08:38;;;;;;;;;;;11.10;99.90;;;;;;5077339;28;19965;-71
2022/11/16 14:11:24;;;;;;;;;;;11.00;99.90;;;;;;5094451;28;20327;-72
2022/11/16 14:13:50;;;;;;;;;;;11.00;99.90;;;;;;5095547;28;19924;-72
2022/11/16 14:16:19;;;;;;;;;;;11.00;99.90;;;;;;5097384;28;19928;-72
2022/11/16 14:18:48;;;;;;;;;;;10.90;99.90;;;;;;5097832;28;20014;-72
2022/11/16 14:21:33;;;;;;;;;;;10.90;99.90;;;;;;5093129;28;19920;-71
2022/11/16 14:24:04;;;;;;;;;;;10.80;99.90;;;;;;5111040;28;19928;-72
2022/11/16 14:26:49;;;;;;;;;;;10.80;99.90;;;;;;5128829;27;19920;-71
2022/11/16 14:29:27;;;;;;;;;;;10.60;99.90;;;;;;5136955;27;20252;-71
2022/11/16 14:31:57;;;;;;;;;;;10.60;99.90;;;;;;5103635;28;19982;-73
2022/11/16 14:34:27;;;;;;;;;;;10.50;99.90;;;;;;5127570;27;19935;-73
2022/11/16 14:36:52;;;;;;;;;;;10.40;99.90;;;;;;5107797;28;19924;-73
2022/11/16 14:39:21;;;;;;;;;;;10.30;99.90;;;;;;5095426;27;19979;-74
2022/11/16 14:41:46;;;;;;;;;;;10.30;99.90;;;;;;5125680;27;19920;-74
2022/11/16 14:44:16;;;;;;;;;;;10.30;99.90;;;;;;5112069;27;20235;-74
2022/11/16 14:46:42;;;;;;;;;;;10.30;99.90;;;;;;5109079;27;20014;-73
2022/11/16 14:49:11;;;;;;;;;;;10.30;99.90;;;;;;5112230;28;20000;-73
2022/11/16 14:51:40;;;;;;;;;;;10.20;99.90;;;;;;5100509;27;19927;-74
2022/11/16 14:54:14;;;;;;;;;;;10.20;99.90;;;;;;5102257;28;19924;-74
2022/11/16 14:57:00;;;;;;;;;;;10.20;99.90;;;;;;5088666;28;19923;-74
2022/11/16 14:59:26;;;;;;;;;;;10.10;99.90;;;;;;5090961;27;19958;-73
2022/11/16 15:01:52;;;;;;;;;;;10.00;99.90;;;;;;5131716;27;19986;-73
2022/11/16 15:04:18;;;;;;;;;;;10.00;99.90;;;;;;5094437;28;20366;-74
2022/11/16 15:06:44;;;;;;;;;;;10.00;99.90;;;;;;5107879;28;19927;-73
2022/11/16 15:09:13;;;;;;;;;;;9.90;99.90;;;;;;5099802;28;20281;-75
2022/11/16 15:14:27;;;;;;;;;;;9.80;99.90;;;;;;5100667;28;19919;-74